createdAt,value
2019-02-10T00:00:16.820Z,1002.91
2019-02-10T00:01:16.779Z,1002.89
2019-02-10T00:02:16.717Z,1002.94
2019-02-10T00:03:16.689Z,1002.94
2019-02-10T00:04:16.681Z,1002.94
2019-02-10T00:05:16.660Z,1002.93
2019-02-10T00:06:24.344Z,1002.93
2019-02-10T00:07:17.719Z,1002.88
2019-02-10T00:08:16.648Z,1002.85
2019-02-10T00:09:16.647Z,1002.87
2019-02-10T00:10:16.597Z,1003.02
2019-02-10T00:11:16.618Z,1002.99
2019-02-10T00:12:16.624Z,1003.04
2019-02-10T00:13:16.596Z,1002.98
2019-02-10T00:14:16.605Z,1003.04
2019-02-10T00:15:16.600Z,1003.00
2019-02-10T00:16:16.675Z,1003.02
2019-02-10T00:17:16.577Z,1003.00
2019-02-10T00:18:16.572Z,1003.03
2019-02-10T00:19:16.535Z,1003.06
2019-02-10T00:20:16.564Z,1003.03
2019-02-10T00:21:16.545Z,1003.06
2019-02-10T00:22:16.725Z,1003.05
2019-02-10T00:23:16.476Z,1003.08
2019-02-10T00:24:16.505Z,1002.99
2019-02-10T00:25:16.462Z,1002.97
2019-02-10T00:26:16.467Z,1002.94
2019-02-10T00:27:16.449Z,1003.00
2019-02-10T00:28:16.426Z,1003.04
2019-02-10T00:29:16.437Z,1003.10
2019-02-10T00:30:16.407Z,1003.12
2019-02-10T00:31:16.404Z,1003.11
2019-02-10T00:32:16.372Z,1003.06
2019-02-10T00:33:16.362Z,1003.13
2019-02-10T00:34:16.409Z,1003.16
2019-02-10T00:35:16.385Z,1003.11
2019-02-10T00:36:16.374Z,1003.11
2019-02-10T00:37:16.361Z,1003.08
2019-02-10T00:38:16.322Z,1003.02
2019-02-10T00:39:16.348Z,1003.02
2019-02-10T00:40:16.327Z,1003.05
2019-02-10T00:41:16.329Z,1003.03
2019-02-10T00:42:16.302Z,1003.08
2019-02-10T00:43:16.284Z,1003.10
2019-02-10T00:44:16.330Z,1002.97
2019-02-10T00:45:16.245Z,1002.97
2019-02-10T00:46:16.278Z,1002.95
2019-02-10T00:47:16.286Z,1002.92
2019-02-10T00:48:16.245Z,1003.02
2019-02-10T00:49:16.287Z,1003.00
2019-02-10T00:50:16.293Z,1002.94
2019-02-10T00:51:16.246Z,1002.99
2019-02-10T00:52:16.245Z,1003.00
2019-02-10T00:53:16.202Z,1002.97
2019-02-10T00:54:16.161Z,1002.91
2019-02-10T00:55:16.300Z,1002.92
2019-02-10T00:56:16.126Z,1002.88
2019-02-10T00:57:16.141Z,1002.95
2019-02-10T00:58:16.130Z,1002.93
2019-02-10T00:59:16.158Z,1002.86
2019-02-10T01:00:16.121Z,1002.90
2019-02-10T01:01:16.101Z,1002.91
2019-02-10T01:02:16.085Z,1002.86
2019-02-10T01:03:16.146Z,1002.87
2019-02-10T01:04:16.085Z,1002.85
2019-02-10T01:05:16.041Z,1002.83
2019-02-10T01:06:16.103Z,1002.81
2019-02-10T01:07:16.179Z,1002.81
2019-02-10T01:08:16.085Z,1002.77
2019-02-10T01:09:16.074Z,1002.85
2019-02-10T01:10:16.041Z,1002.85
2019-02-10T01:11:16.106Z,1002.82
2019-02-10T01:12:16.068Z,1002.83
2019-02-10T01:13:16.057Z,1002.80
2019-02-10T01:14:15.970Z,1002.80
2019-02-10T01:15:15.990Z,1002.77
2019-02-10T01:16:15.955Z,1002.80
2019-02-10T01:17:16.001Z,1002.76
2019-02-10T01:18:25.389Z,1002.77
2019-02-10T01:19:24.897Z,1002.75
2019-02-10T01:20:24.953Z,1002.78
2019-02-10T01:21:24.504Z,1002.69
2019-02-10T01:22:15.846Z,1002.67
2019-02-10T01:23:15.834Z,1002.72
2019-02-10T01:24:25.029Z,1002.76
2019-02-10T01:25:25.022Z,1002.72
2019-02-10T01:26:25.037Z,1002.69
2019-02-10T01:27:15.812Z,1002.72
2019-02-10T01:28:15.781Z,1002.73
2019-02-10T01:29:15.787Z,1002.69
2019-02-10T01:30:15.911Z,1002.67
2019-02-10T01:31:15.777Z,1002.73
2019-02-10T01:32:15.769Z,1002.75
2019-02-10T01:33:15.752Z,1002.75
2019-02-10T01:34:15.725Z,1002.69
2019-02-10T01:35:15.748Z,1002.70
2019-02-10T01:36:15.726Z,1002.71
2019-02-10T01:37:15.828Z,1002.70
2019-02-10T01:38:15.711Z,1002.68
2019-02-10T01:39:15.675Z,1002.71
2019-02-10T01:40:15.725Z,1002.72
2019-02-10T01:41:15.646Z,1002.69
2019-02-10T01:42:15.630Z,1002.63
2019-02-10T01:43:15.646Z,1002.63
2019-02-10T01:44:15.617Z,1002.61
2019-02-10T01:45:15.616Z,1002.65
2019-02-10T01:46:15.615Z,1002.69
2019-02-10T01:47:15.622Z,1002.60
2019-02-10T01:48:15.595Z,1002.56
2019-02-10T01:49:15.557Z,1002.58
2019-02-10T01:50:15.595Z,1002.57
2019-02-10T01:51:15.551Z,1002.57
2019-02-10T01:52:15.553Z,1002.53
2019-02-10T01:53:15.571Z,1002.55
2019-02-10T01:54:15.510Z,1002.56
2019-02-10T01:55:15.492Z,1002.56
2019-02-10T01:56:15.512Z,1002.60
2019-02-10T01:57:15.494Z,1002.58
2019-02-10T01:58:15.485Z,1002.60
2019-02-10T01:59:15.541Z,1002.60
2019-02-10T02:00:15.474Z,1002.51
2019-02-10T02:01:15.445Z,1002.49
2019-02-10T02:02:15.437Z,1002.47
2019-02-10T02:03:15.438Z,1002.45
2019-02-10T02:04:15.437Z,1002.44
2019-02-10T02:05:15.396Z,1002.49
2019-02-10T02:06:15.390Z,1002.46
2019-02-10T02:07:15.411Z,1002.52
2019-02-10T02:08:15.401Z,1002.44
2019-02-10T02:09:15.375Z,1002.43
2019-02-10T02:10:15.364Z,1002.46
2019-02-10T02:11:15.342Z,1002.45
2019-02-10T02:12:15.331Z,1002.45
2019-02-10T02:13:15.321Z,1002.44
2019-02-10T02:14:15.313Z,1002.43
2019-02-10T02:15:15.294Z,1002.38
2019-02-10T02:16:15.365Z,1002.39
2019-02-10T02:17:15.272Z,1002.39
2019-02-10T02:18:15.272Z,1002.36
2019-02-10T02:19:15.270Z,1002.37
2019-02-10T02:20:15.256Z,1002.38
2019-02-10T02:21:15.221Z,1002.35
2019-02-10T02:22:15.220Z,1002.39
2019-02-10T02:23:15.213Z,1002.38
2019-02-10T02:24:15.222Z,1002.35
2019-02-10T02:25:15.198Z,1002.37
2019-02-10T02:26:15.328Z,1002.45
2019-02-10T02:27:15.227Z,1002.38
2019-02-10T02:28:15.174Z,1002.38
2019-02-10T02:29:15.181Z,1002.33
2019-02-10T02:30:15.178Z,1002.33
2019-02-10T02:31:15.148Z,1002.30
2019-02-10T02:32:15.187Z,1002.27
2019-02-10T02:33:15.161Z,1002.26
2019-02-10T02:34:15.133Z,1002.25
2019-02-10T02:35:15.101Z,1002.27
2019-02-10T02:36:15.173Z,1002.29
2019-02-10T02:37:15.091Z,1002.26
2019-02-10T02:38:15.092Z,1002.22
2019-02-10T02:39:15.100Z,1002.25
2019-02-10T02:40:15.058Z,1002.25
2019-02-10T02:41:15.071Z,1002.22
2019-02-10T02:42:15.050Z,1002.17
2019-02-10T02:43:15.029Z,1002.12
2019-02-10T02:44:15.067Z,1002.14
2019-02-10T02:45:15.004Z,1002.15
2019-02-10T02:46:15.039Z,1002.11
2019-02-10T02:47:14.987Z,1002.09
2019-02-10T02:48:14.999Z,1002.09
2019-02-10T02:49:14.952Z,1002.12
2019-02-10T02:50:14.955Z,1002.05
2019-02-10T02:51:14.899Z,1002.07
2019-02-10T02:52:14.931Z,1002.06
2019-02-10T02:53:14.950Z,1002.00
2019-02-10T02:54:14.881Z,1002.02
2019-02-10T02:55:14.871Z,1002.02
2019-02-10T02:56:14.858Z,1002.02
2019-02-10T02:57:14.863Z,1001.95
2019-02-10T02:58:14.869Z,1001.97
2019-02-10T02:59:14.870Z,1001.95
2019-02-10T03:00:14.835Z,1001.97
2019-02-10T03:01:14.810Z,1001.94
2019-02-10T03:02:14.792Z,1001.94
2019-02-10T03:03:14.807Z,1001.91
2019-02-10T03:04:14.775Z,1001.92
2019-02-10T03:05:14.903Z,1001.88
2019-02-10T03:06:14.799Z,1001.80
2019-02-10T03:07:18.069Z,1001.77
2019-02-10T03:08:14.766Z,1001.81
2019-02-10T03:09:14.790Z,1001.79
2019-02-10T03:10:14.728Z,1001.80
2019-02-10T03:11:14.703Z,1001.80
2019-02-10T03:12:14.728Z,1001.77
2019-02-10T03:13:14.761Z,1001.81
2019-02-10T03:14:14.736Z,1001.82
2019-02-10T03:15:14.716Z,1001.80
2019-02-10T03:16:14.671Z,1001.76
2019-02-10T03:17:14.720Z,1001.69
2019-02-10T03:18:14.693Z,1001.73
2019-02-10T03:19:14.701Z,1001.77
2019-02-10T03:20:14.636Z,1001.76
2019-02-10T03:21:14.716Z,1001.77
2019-02-10T03:22:14.599Z,1001.73
2019-02-10T03:23:14.572Z,1001.70
2019-02-10T03:24:14.554Z,1001.73
2019-02-10T03:25:14.768Z,1001.71
2019-02-10T03:26:14.604Z,1001.74
2019-02-10T03:27:14.765Z,1001.75
2019-02-10T03:28:14.563Z,1001.70
2019-02-10T03:29:14.527Z,1001.68
2019-02-10T03:30:14.560Z,1001.69
2019-02-10T03:31:14.570Z,1001.69
2019-02-10T03:32:14.493Z,1001.69
2019-02-10T03:33:14.516Z,1001.64
2019-02-10T03:34:14.462Z,1001.61
2019-02-10T03:35:14.494Z,1001.60
2019-02-10T03:36:14.486Z,1001.65
2019-02-10T03:37:14.509Z,1001.65
2019-02-10T03:38:14.426Z,1001.59
2019-02-10T03:39:14.427Z,1001.55
2019-02-10T03:40:14.428Z,1001.56
2019-02-10T03:41:14.414Z,1001.54
2019-02-10T03:42:14.400Z,1001.49
2019-02-10T03:43:14.389Z,1001.47
2019-02-10T03:44:14.341Z,1001.54
2019-02-10T03:45:14.390Z,1001.46
2019-02-10T03:46:14.323Z,1001.45
2019-02-10T03:47:14.298Z,1001.42
2019-02-10T03:48:14.326Z,1001.40
2019-02-10T03:49:14.281Z,1001.43
2019-02-10T03:50:14.367Z,1001.40
2019-02-10T03:51:14.288Z,1001.41
2019-02-10T03:52:14.465Z,1001.44
2019-02-10T03:53:14.295Z,1001.46
2019-02-10T03:54:14.674Z,1001.40
2019-02-10T03:55:14.293Z,1001.43
2019-02-10T03:56:14.265Z,1001.40
2019-02-10T03:57:14.290Z,1001.37
2019-02-10T03:58:14.217Z,1001.37
2019-02-10T03:59:14.208Z,1001.34
2019-02-10T04:00:14.212Z,1001.37
2019-02-10T04:01:14.304Z,1001.38
2019-02-10T04:02:14.159Z,1001.34
2019-02-10T04:03:14.273Z,1001.35
2019-02-10T04:04:14.137Z,1001.35
2019-02-10T04:05:16.599Z,1001.33
2019-02-10T04:06:14.170Z,1001.32
2019-02-10T04:07:15.120Z,1001.30
2019-02-10T04:08:16.672Z,1001.29
2019-02-10T04:09:14.088Z,1001.22
2019-02-10T04:10:14.189Z,1001.27
2019-02-10T04:11:14.047Z,1001.23
2019-02-10T04:12:14.058Z,1001.26
2019-02-10T04:13:14.278Z,1001.27
2019-02-10T04:14:15.090Z,1001.24
2019-02-10T04:15:15.018Z,1001.23
2019-02-10T04:16:14.077Z,1001.25
2019-02-10T04:17:14.024Z,1001.18
2019-02-10T04:18:14.064Z,1001.17
2019-02-10T04:19:14.070Z,1001.21
2019-02-10T04:20:14.022Z,1001.16
2019-02-10T04:21:13.996Z,1001.14
2019-02-10T04:22:13.934Z,1001.08
2019-02-10T04:23:13.955Z,1001.12
2019-02-10T04:24:13.919Z,1001.10
2019-02-10T04:25:13.921Z,1001.10
2019-02-10T04:26:13.997Z,1001.06
2019-02-10T04:27:14.118Z,1001.13
2019-02-10T04:28:13.895Z,1001.05
2019-02-10T04:29:13.890Z,1001.08
2019-02-10T04:30:13.898Z,1001.11
2019-02-10T04:31:13.893Z,1001.09
2019-02-10T04:32:13.843Z,1001.08
2019-02-10T04:33:13.841Z,1001.12
2019-02-10T04:34:13.861Z,1001.08
2019-02-10T04:35:13.812Z,1001.04
2019-02-10T04:37:30.973Z,1001.00
2019-02-10T04:38:32.131Z,1000.96
2019-02-10T04:39:30.854Z,1000.93
2019-02-10T04:40:30.830Z,1000.93
2019-02-10T04:41:30.836Z,1000.92
2019-02-10T04:42:30.826Z,1000.92
2019-02-10T04:43:30.836Z,1000.97
2019-02-10T04:44:30.783Z,1000.94
2019-02-10T04:45:30.776Z,1000.93
2019-02-10T04:46:30.768Z,1000.90
2019-02-10T04:47:30.819Z,1000.93
2019-02-10T04:48:30.769Z,1000.82
2019-02-10T04:49:31.216Z,1000.86
2019-02-10T04:50:30.737Z,1000.83
2019-02-10T04:51:30.739Z,1000.87
2019-02-10T04:52:31.708Z,1000.82
2019-02-10T04:53:32.155Z,1000.83
2019-02-10T04:54:31.736Z,1000.79
2019-02-10T04:55:31.166Z,1000.77
2019-02-10T04:56:30.881Z,1000.80
2019-02-10T04:57:30.977Z,1000.78
2019-02-10T04:58:30.731Z,1000.76
2019-02-10T04:59:32.321Z,1000.74
2019-02-10T05:00:30.633Z,1000.77
2019-02-10T05:01:30.615Z,1000.72
2019-02-10T05:02:30.961Z,1000.75
2019-02-10T05:03:31.024Z,1000.69
2019-02-10T05:04:30.620Z,1000.73
2019-02-10T05:05:31.568Z,1000.70
2019-02-10T05:06:31.280Z,1000.71
2019-02-10T05:07:33.838Z,1000.74
2019-02-10T05:08:31.466Z,1000.70
2019-02-10T05:09:32.421Z,1000.66
2019-02-10T05:10:31.662Z,1000.65
2019-02-10T05:11:32.410Z,1000.64
2019-02-10T05:12:31.439Z,1000.67
2019-02-10T05:13:31.057Z,1000.62
2019-02-10T05:14:31.118Z,1000.63
2019-02-10T05:15:30.466Z,1000.59
2019-02-10T05:16:30.505Z,1000.63
2019-02-10T05:17:30.471Z,1000.60
2019-02-10T05:18:30.496Z,1000.55
2019-02-10T05:19:30.466Z,1000.52
2019-02-10T05:20:30.450Z,1000.52
2019-02-10T05:21:30.409Z,1000.51
2019-02-10T05:22:30.408Z,1000.50
2019-02-10T05:23:30.393Z,1000.51
2019-02-10T05:24:30.385Z,1000.52
2019-02-10T05:25:30.512Z,1000.44
2019-02-10T05:26:30.362Z,1000.44
2019-02-10T05:27:30.352Z,1000.37
2019-02-10T05:28:30.352Z,1000.45
2019-02-10T05:29:30.342Z,1000.42
2019-02-10T05:30:30.347Z,1000.37
2019-02-10T05:31:30.304Z,1000.37
2019-02-10T05:32:30.294Z,1000.34
2019-02-10T05:33:30.290Z,1000.33
2019-02-10T05:34:30.306Z,1000.29
2019-02-10T05:35:30.337Z,1000.29
2019-02-10T05:36:30.360Z,1000.30
2019-02-10T05:37:30.250Z,1000.24
2019-02-10T05:38:30.232Z,1000.28
2019-02-10T05:39:30.234Z,1000.26
2019-02-10T05:40:30.261Z,1000.27
2019-02-10T05:41:30.252Z,1000.19
2019-02-10T05:42:30.189Z,1000.19
2019-02-10T05:43:30.187Z,1000.15
2019-02-10T05:44:30.207Z,1000.14
2019-02-10T05:45:30.166Z,1000.13
2019-02-10T05:46:30.182Z,1000.08
2019-02-10T05:47:30.129Z,1000.08
2019-02-10T05:48:30.135Z,1000.05
2019-02-10T05:49:30.174Z,1000.06
2019-02-10T05:50:30.107Z,1000.00
2019-02-10T05:51:30.111Z,1000.00
2019-02-10T05:52:32.674Z,999.98
2019-02-10T05:53:30.809Z,999.98
2019-02-10T05:54:30.137Z,1000.05
2019-02-10T05:55:30.078Z,1000.02
2019-02-10T05:56:30.168Z,999.91
2019-02-10T05:57:30.114Z,999.90
2019-02-10T05:58:30.059Z,999.81
2019-02-10T05:59:30.011Z,999.78
2019-02-10T06:00:30.031Z,999.70
2019-02-10T06:01:29.991Z,999.70
2019-02-10T06:02:29.991Z,999.67
2019-02-10T06:03:29.987Z,999.60
2019-02-10T06:04:29.987Z,999.60
2019-02-10T06:05:29.940Z,999.58
2019-02-10T06:06:29.936Z,999.56
2019-02-10T06:07:29.927Z,999.58
2019-02-10T06:08:29.910Z,999.56
2019-02-10T06:09:29.922Z,999.44
2019-02-10T06:10:29.907Z,999.53
2019-02-10T06:11:29.868Z,999.42
2019-02-10T06:12:29.900Z,999.42
2019-02-10T06:13:29.856Z,999.34
2019-02-10T06:14:30.018Z,999.36
2019-02-10T06:15:29.924Z,999.35
2019-02-10T06:16:29.826Z,999.32
2019-02-10T06:17:29.828Z,999.36
2019-02-10T06:18:29.791Z,999.33
2019-02-10T06:19:29.792Z,999.35
2019-02-10T06:20:29.819Z,999.33
2019-02-10T06:21:29.811Z,999.30
2019-02-10T06:22:29.758Z,999.29
2019-02-10T06:23:29.756Z,999.34
2019-02-10T06:24:29.774Z,999.31
2019-02-10T06:25:29.748Z,999.28
2019-02-10T06:26:29.729Z,999.27
2019-02-10T06:27:29.709Z,999.22
2019-02-10T06:28:29.740Z,999.25
2019-02-10T06:29:29.687Z,999.25
2019-02-10T06:30:29.733Z,999.28
2019-02-10T06:31:29.689Z,999.27
2019-02-10T06:32:29.656Z,999.30
2019-02-10T06:33:29.663Z,999.28
2019-02-10T06:34:29.641Z,999.24
2019-02-10T06:35:29.619Z,999.24
2019-02-10T06:36:29.649Z,999.21
2019-02-10T06:37:29.623Z,999.16
2019-02-10T06:38:29.605Z,999.17
2019-02-10T06:39:29.589Z,999.17
2019-02-10T06:40:29.592Z,999.09
2019-02-10T06:41:29.560Z,999.08
2019-02-10T06:42:29.538Z,999.08
2019-02-10T06:43:29.546Z,999.07
2019-02-10T06:44:29.547Z,999.03
2019-02-10T06:45:29.537Z,998.99
2019-02-10T06:46:29.543Z,999.03
2019-02-10T06:47:29.503Z,998.98
2019-02-10T06:48:29.491Z,999.01
2019-02-10T06:49:29.473Z,999.04
2019-02-10T06:50:29.482Z,999.01
2019-02-10T06:51:29.465Z,998.96
2019-02-10T06:52:29.467Z,998.98
2019-02-10T06:53:29.449Z,998.97
2019-02-10T06:54:29.431Z,998.98
2019-02-10T06:55:29.413Z,998.99
2019-02-10T06:56:29.394Z,999.01
2019-02-10T06:57:29.419Z,998.95
2019-02-10T06:58:29.394Z,998.90
2019-02-10T06:59:29.370Z,998.91
2019-02-10T07:00:29.363Z,998.92
2019-02-10T07:01:29.421Z,998.93
2019-02-10T07:02:29.374Z,998.94
2019-02-10T07:03:29.365Z,998.91
2019-02-10T07:04:29.335Z,998.90
2019-02-10T07:05:29.344Z,998.86
2019-02-10T07:06:29.304Z,998.83
2019-02-10T07:07:29.296Z,998.74
2019-02-10T07:08:30.719Z,998.70
2019-02-10T07:09:29.275Z,998.76
2019-02-10T07:10:29.263Z,998.75
2019-02-10T07:11:29.284Z,998.68
2019-02-10T07:12:29.283Z,998.64
2019-02-10T07:13:29.248Z,998.57
2019-02-10T07:14:29.236Z,998.55
2019-02-10T07:15:29.234Z,998.52
2019-02-10T07:16:29.202Z,998.59
2019-02-10T07:17:29.208Z,998.58
2019-02-10T07:18:29.221Z,998.55
2019-02-10T07:19:29.173Z,998.54
2019-02-10T07:20:29.147Z,998.51
2019-02-10T07:21:29.148Z,998.51
2019-02-10T07:22:29.134Z,998.51
2019-02-10T07:23:29.133Z,998.47
2019-02-10T07:24:29.160Z,998.42
2019-02-10T07:25:29.105Z,998.37
2019-02-10T07:26:29.091Z,998.44
2019-02-10T07:27:29.106Z,998.33
2019-02-10T07:28:29.076Z,998.39
2019-02-10T07:29:29.079Z,998.35
2019-02-10T07:30:29.086Z,998.34
2019-02-10T07:31:29.045Z,998.21
2019-02-10T07:32:29.035Z,998.23
2019-02-10T07:33:29.030Z,998.24
2019-02-10T07:34:29.052Z,998.21
2019-02-10T07:35:29.034Z,998.24
2019-02-10T07:36:28.998Z,998.21
2019-02-10T07:37:28.981Z,998.14
2019-02-10T07:38:28.976Z,998.20
2019-02-10T07:39:28.969Z,998.10
2019-02-10T07:40:29.005Z,998.15
2019-02-10T07:41:28.926Z,998.04
2019-02-10T07:42:28.925Z,998.09
2019-02-10T07:43:28.957Z,998.00
2019-02-10T07:44:28.922Z,998.00
2019-02-10T07:45:28.909Z,998.03
2019-02-10T07:46:28.894Z,997.98
2019-02-10T07:47:28.897Z,997.99
2019-02-10T07:48:28.895Z,997.92
2019-02-10T07:49:28.869Z,997.93
2019-02-10T07:50:28.904Z,997.92
2019-02-10T07:51:28.885Z,997.86
2019-02-10T07:52:39.280Z,997.81
2019-02-10T07:54:51.190Z,997.74
2019-02-10T07:55:51.194Z,997.77
2019-02-10T07:56:51.210Z,997.69
2019-02-10T07:57:51.172Z,997.65
2019-02-10T07:58:51.161Z,997.59
2019-02-10T07:59:51.137Z,997.55
2019-02-10T08:00:51.127Z,997.56
2019-02-10T08:01:51.128Z,997.58
2019-02-10T08:02:51.134Z,997.59
2019-02-10T08:03:51.099Z,997.56
2019-02-10T08:04:51.081Z,997.57
2019-02-10T08:05:51.076Z,997.54
2019-02-10T08:06:51.123Z,997.51
2019-02-10T08:07:51.056Z,997.46
2019-02-10T08:08:51.054Z,997.49
2019-02-10T08:09:51.036Z,997.43
2019-02-10T08:10:51.039Z,997.46
2019-02-10T08:11:51.008Z,997.47
2019-02-10T08:12:51.018Z,997.39
2019-02-10T08:13:50.992Z,997.42
2019-02-10T08:14:51.001Z,997.44
2019-02-10T08:15:50.973Z,997.39
2019-02-10T08:16:50.984Z,997.40
2019-02-10T08:17:59.871Z,997.40
2019-02-10T08:18:50.947Z,997.36
2019-02-10T08:20:00.409Z,997.34
2019-02-10T08:22:08.356Z,997.32
2019-02-10T08:23:08.361Z,997.35
2019-02-10T08:24:17.216Z,997.29
2019-02-10T08:25:17.280Z,997.33
2019-02-10T08:26:17.772Z,997.27
2019-02-10T08:27:17.811Z,997.23
2019-02-10T08:28:17.847Z,997.23
2019-02-10T08:29:17.377Z,997.19
2019-02-10T08:30:17.420Z,997.17
2019-02-10T08:31:17.436Z,997.09
2019-02-10T08:32:17.474Z,997.12
2019-02-10T08:34:25.636Z,997.00
2019-02-10T08:35:36.055Z,997.01
2019-02-10T08:36:34.054Z,996.97
2019-02-10T08:38:35.715Z,996.87
2019-02-10T08:39:35.817Z,996.90
2019-02-10T08:40:35.714Z,996.90
2019-02-10T08:41:35.754Z,996.82
2019-02-10T08:42:35.744Z,996.71
2019-02-10T08:43:35.663Z,996.74
2019-02-10T08:44:35.648Z,996.66
2019-02-10T08:45:35.648Z,996.60
2019-02-10T08:46:35.681Z,996.54
2019-02-10T08:47:35.618Z,996.50
2019-02-10T08:48:35.628Z,996.42
2019-02-10T08:49:35.614Z,996.42
2019-02-10T08:50:35.583Z,996.36
2019-02-10T08:51:35.581Z,996.39
2019-02-10T08:52:35.563Z,996.29
2019-02-10T08:53:35.664Z,996.16
2019-02-10T08:54:35.542Z,996.16
2019-02-10T08:55:35.545Z,996.12
2019-02-10T08:56:36.636Z,996.09
2019-02-10T08:57:35.530Z,996.09
2019-02-10T08:58:35.517Z,996.02
2019-02-10T08:59:35.510Z,996.01
2019-02-10T09:00:35.508Z,995.95
2019-02-10T09:01:35.474Z,995.92
2019-02-10T09:02:35.461Z,995.92
2019-02-10T09:03:35.481Z,995.83
2019-02-10T09:04:35.463Z,995.74
2019-02-10T09:05:35.425Z,995.69
2019-02-10T09:06:35.439Z,995.72
2019-02-10T09:07:35.430Z,995.59
2019-02-10T09:08:35.407Z,995.56
2019-02-10T09:09:35.407Z,995.55
2019-02-10T09:10:35.424Z,995.53
2019-02-10T09:11:35.395Z,995.58
2019-02-10T09:12:35.365Z,995.58
2019-02-10T09:13:35.346Z,995.51
2019-02-10T09:14:35.345Z,995.40
2019-02-10T09:15:35.334Z,995.34
2019-02-10T09:16:35.330Z,995.38
2019-02-10T09:17:35.325Z,995.34
2019-02-10T09:18:35.313Z,995.23
2019-02-10T09:19:35.281Z,995.24
2019-02-10T09:20:35.307Z,995.25
2019-02-10T09:21:35.267Z,995.16
2019-02-10T09:22:35.256Z,995.20
2019-02-10T09:23:35.253Z,995.17
2019-02-10T09:24:35.250Z,995.09
2019-02-10T09:25:35.242Z,995.02
2019-02-10T09:26:35.227Z,995.01
2019-02-10T09:27:35.217Z,994.97
2019-02-10T09:28:35.204Z,994.94
2019-02-10T09:29:35.187Z,994.94
2019-02-10T09:30:35.215Z,994.85
2019-02-10T09:31:35.174Z,994.93
2019-02-10T09:32:35.152Z,994.80
2019-02-10T09:33:35.171Z,994.78
2019-02-10T09:34:35.141Z,994.73
2019-02-10T09:35:35.147Z,994.66
2019-02-10T09:36:35.118Z,994.64
2019-02-10T09:37:35.100Z,994.53
2019-02-10T09:38:35.093Z,994.58
2019-02-10T09:39:35.115Z,994.54
2019-02-10T09:40:35.087Z,994.39
2019-02-10T09:41:35.068Z,994.43
2019-02-10T09:42:35.057Z,994.40
2019-02-10T09:43:35.070Z,994.29
2019-02-10T09:44:35.059Z,994.21
2019-02-10T09:45:35.034Z,994.25
2019-02-10T09:46:35.073Z,994.16
2019-02-10T09:47:35.010Z,994.15
2019-02-10T09:48:35.015Z,994.17
2019-02-10T09:49:34.996Z,994.15
2019-02-10T09:50:35.004Z,994.05
2019-02-10T09:51:36.839Z,994.06
2019-02-10T09:52:37.443Z,993.99
2019-02-10T09:53:37.115Z,993.94
2019-02-10T09:54:35.791Z,994.02
2019-02-10T09:55:36.383Z,994.00
2019-02-10T09:56:57.887Z,993.94
2019-02-10T09:57:39.373Z,993.83
2019-02-10T09:58:44.221Z,993.72
2019-02-10T09:59:37.842Z,993.75
2019-02-10T10:00:42.727Z,993.74
2019-02-10T10:01:34.971Z,993.74
2019-02-10T10:02:35.485Z,993.73
2019-02-10T10:03:34.978Z,993.74
2019-02-10T10:04:34.872Z,993.70
2019-02-10T10:05:35.755Z,993.53
2019-02-10T10:06:34.824Z,993.55
2019-02-10T10:07:36.147Z,993.50
2019-02-10T10:08:34.809Z,993.42
2019-02-10T10:09:34.817Z,993.43
2019-02-10T10:10:34.795Z,993.39
2019-02-10T10:11:34.789Z,993.40
2019-02-10T10:12:34.754Z,993.32
2019-02-10T10:13:34.740Z,993.34
2019-02-10T10:14:34.814Z,993.31
2019-02-10T10:15:34.748Z,993.20
2019-02-10T10:16:34.777Z,993.19
2019-02-10T10:17:34.703Z,993.13
2019-02-10T10:18:34.700Z,993.07
2019-02-10T10:19:34.675Z,993.03
2019-02-10T10:20:34.658Z,993.01
2019-02-10T10:21:34.671Z,992.93
2019-02-10T10:22:34.635Z,992.98
2019-02-10T10:23:34.705Z,992.90
2019-02-10T10:24:34.638Z,992.91
2019-02-10T10:25:34.719Z,992.78
2019-02-10T10:26:34.626Z,992.71
2019-02-10T10:27:34.622Z,992.60
2019-02-10T10:28:34.619Z,992.64
2019-02-10T10:29:34.561Z,992.64
2019-02-10T10:30:34.582Z,992.59
2019-02-10T10:31:34.598Z,992.63
2019-02-10T10:32:34.553Z,992.55
2019-02-10T10:33:34.571Z,992.59
2019-02-10T10:34:34.585Z,992.43
2019-02-10T10:35:34.518Z,992.47
2019-02-10T10:36:44.245Z,992.30
2019-02-10T10:37:34.469Z,992.17
2019-02-10T10:38:34.480Z,992.11
2019-02-10T10:39:34.467Z,992.21
2019-02-10T10:40:34.530Z,992.14
2019-02-10T10:41:34.450Z,992.18
2019-02-10T10:42:34.449Z,992.13
2019-02-10T10:43:34.490Z,992.09
2019-02-10T10:44:34.463Z,992.14
2019-02-10T10:45:34.440Z,991.95
2019-02-10T10:46:34.426Z,991.95
2019-02-10T10:47:34.430Z,991.88
2019-02-10T10:48:34.397Z,991.84
2019-02-10T10:49:34.393Z,991.73
2019-02-10T10:50:34.365Z,991.73
2019-02-10T10:51:34.369Z,991.75
2019-02-10T10:52:34.345Z,991.79
2019-02-10T10:53:34.361Z,991.67
2019-02-10T10:54:42.419Z,991.66
2019-02-10T10:55:35.293Z,991.56
2019-02-10T10:56:34.328Z,991.59
2019-02-10T10:57:34.278Z,991.65
2019-02-10T10:58:34.272Z,991.52
2019-02-10T10:59:34.284Z,991.50
2019-02-10T11:00:34.274Z,991.47
2019-02-10T11:01:34.252Z,991.46
2019-02-10T11:02:34.225Z,991.38
2019-02-10T11:03:34.236Z,991.32
2019-02-10T11:04:34.219Z,991.28
2019-02-10T11:05:34.234Z,991.33
2019-02-10T11:06:34.241Z,991.36
2019-02-10T11:07:34.265Z,991.41
2019-02-10T11:08:34.167Z,991.24
2019-02-10T11:09:35.656Z,991.20
2019-02-10T11:10:34.179Z,991.24
2019-02-10T11:11:34.179Z,991.05
2019-02-10T11:12:34.137Z,991.10
2019-02-10T11:13:34.110Z,991.14
2019-02-10T11:14:34.112Z,991.17
2019-02-10T11:15:34.103Z,991.18
2019-02-10T11:16:34.123Z,991.17
2019-02-10T11:17:34.119Z,991.03
2019-02-10T11:18:34.113Z,991.04
2019-02-10T11:19:34.074Z,990.98
2019-02-10T11:20:34.051Z,990.85
2019-02-10T11:21:34.045Z,990.90
2019-02-10T11:22:34.030Z,990.92
2019-02-10T11:23:34.038Z,990.91
2019-02-10T11:24:33.995Z,990.87
2019-02-10T11:25:33.983Z,990.86
2019-02-10T11:26:33.994Z,990.77
2019-02-10T11:27:34.040Z,990.76
2019-02-10T11:28:33.964Z,990.82
2019-02-10T11:29:33.985Z,990.74
2019-02-10T11:30:33.955Z,990.71
2019-02-10T11:31:33.923Z,990.69
2019-02-10T11:32:33.952Z,990.71
2019-02-10T11:33:34.079Z,990.65
2019-02-10T11:34:33.910Z,990.57
2019-02-10T11:35:33.962Z,990.52
2019-02-10T11:36:33.899Z,990.41
2019-02-10T11:37:33.870Z,990.43
2019-02-10T11:38:33.905Z,990.40
2019-02-10T11:39:33.857Z,990.45
2019-02-10T11:40:33.868Z,990.50
2019-02-10T11:41:33.847Z,990.28
2019-02-10T11:42:33.833Z,990.23
2019-02-10T11:43:34.163Z,990.26
2019-02-10T11:44:33.851Z,990.26
2019-02-10T11:45:33.784Z,990.30
2019-02-10T11:46:33.804Z,990.04
2019-02-10T11:47:33.817Z,990.10
2019-02-10T11:48:33.771Z,989.95
2019-02-10T11:49:33.749Z,989.94
2019-02-10T11:50:33.787Z,989.99
2019-02-10T11:51:33.721Z,990.03
2019-02-10T11:52:33.747Z,990.03
2019-02-10T11:53:33.709Z,990.01
2019-02-10T11:54:33.689Z,989.92
2019-02-10T11:55:34.163Z,989.99
2019-02-10T11:56:33.669Z,989.84
2019-02-10T11:57:33.661Z,989.76
2019-02-10T11:58:33.673Z,989.77
2019-02-10T11:59:33.755Z,989.84
2019-02-10T12:00:33.706Z,989.87
2019-02-10T12:01:33.621Z,989.81
2019-02-10T12:02:38.087Z,989.77
2019-02-10T12:03:33.604Z,989.71
2019-02-10T12:04:33.603Z,989.65
2019-02-10T12:05:33.770Z,989.62
2019-02-10T12:06:33.988Z,989.69
2019-02-10T12:07:33.727Z,989.65
2019-02-10T12:08:35.809Z,989.58
2019-02-10T12:09:33.771Z,989.56
2019-02-10T12:10:33.855Z,989.49
2019-02-10T12:11:33.675Z,989.51
2019-02-10T12:12:33.945Z,989.53
2019-02-10T12:13:33.879Z,989.56
2019-02-10T12:14:33.764Z,989.54
2019-02-10T12:15:33.733Z,989.49
2019-02-10T12:16:33.884Z,989.40
2019-02-10T12:17:33.539Z,989.42
2019-02-10T12:18:33.498Z,989.30
2019-02-10T12:19:33.541Z,989.37
2019-02-10T12:20:33.460Z,989.35
2019-02-10T12:21:33.432Z,989.44
2019-02-10T12:22:33.482Z,989.30
2019-02-10T12:23:33.447Z,989.21